Snoqualmie River: Middle Fork station

back to: Snoqualmie river
Middle Fork station Summary - (NOAA Hydrograph: TANW1)
Latest reading:
Sat01/19 05:15 am 3.81 ft 1313 cfs (+140/hr)
Past 24hr max:
Sat01/19 05:15 am 3.81 ft 1313 cfs
Forecasted crests: (published Fri 01/18/19 09:02 pm)
Sat01/19 04:00 pm 4.25 ft 1653 cfs
Wed01/23 10:00 am 5.69 ft 3127 cfs

Middle Fork station Details

Latest Readings

Last 100 Readings:
Sat01/19 05:15 am 3.81 ft 1313 cfs
Sat01/19 05:00 am 3.76 ft 1278 cfs
Sat01/19 04:45 am 3.72 ft 1251 cfs
Sat01/19 04:30 am 3.67 ft 1217 cfs
Sat01/19 04:15 am 3.64 ft 1197 cfs
Sat01/19 04:00 am 3.61 ft 1177 cfs
Sat01/19 03:45 am 3.55 ft 1138 cfs
Sat01/19 03:30 am 3.51 ft 1112 cfs
Sat01/19 03:15 am 3.47 ft 1087 cfs
Sat01/19 03:00 am 3.47 ft 1087 cfs
Sat01/19 02:45 am 3.41 ft 1050 cfs
Sat01/19 02:30 am 3.38 ft 1032 cfs
Sat01/19 02:15 am 3.39 ft 1038 cfs
Sat01/19 02:00 am 3.36 ft 1020 cfs
Sat01/19 01:45 am 3.3 ft 984 cfs
Sat01/19 01:30 am 3.29 ft 979 cfs
Sat01/19 01:15 am 3.27 ft 967 cfs
Sat01/19 01:00 am 3.25 ft 956 cfs
Sat01/19 12:45 am 3.22 ft 939 cfs
Sat01/19 12:30 am 3.2 ft 927 cfs
Sat01/19 12:15 am 3.18 ft 916 cfs
Sat01/19 12:00 am 3.16 ft 905 cfs
Fri01/18 11:45 pm 3.14 ft 894 cfs
Fri01/18 11:30 pm 3.14 ft 894 cfs
Fri01/18 11:15 pm 3.09 ft 867 cfs
Fri01/18 11:00 pm 3.1 ft 872 cfs
Fri01/18 10:45 pm 3.1 ft 872 cfs
Fri01/18 10:30 pm 3.07 ft 856 cfs
Fri01/18 10:15 pm 3.07 ft 856 cfs
Fri01/18 10:00 pm 3.06 ft 851 cfs
Fri01/18 09:45 pm 3.07 ft 856 cfs
Fri01/18 09:30 pm 3.07 ft 856 cfs
Fri01/18 09:15 pm 3.04 ft 841 cfs
Fri01/18 09:00 pm 3.03 ft 835 cfs
Fri01/18 08:45 pm 3.03 ft 835 cfs
Fri01/18 08:30 pm 3.04 ft 841 cfs
Fri01/18 08:15 pm 3.03 ft 835 cfs
Fri01/18 08:00 pm 3.05 ft 846 cfs
Fri01/18 07:45 pm 3.05 ft 846 cfs
Fri01/18 07:30 pm 3.0 ft 820 cfs
Fri01/18 07:15 pm 3.01 ft 825 cfs
Fri01/18 07:00 pm 3.0 ft 820 cfs
Fri01/18 06:45 pm 3.01 ft 825 cfs
Fri01/18 06:30 pm 3.03 ft 835 cfs
Fri01/18 06:15 pm 3.01 ft 825 cfs
Fri01/18 06:00 pm 3.04 ft 841 cfs
Fri01/18 05:45 pm 3.02 ft 830 cfs
Fri01/18 05:30 pm 3.04 ft 841 cfs
Fri01/18 05:15 pm 3.02 ft 830 cfs
Fri01/18 05:00 pm 3.05 ft 846 cfs
Fri01/18 04:45 pm 3.03 ft 835 cfs
Fri01/18 04:30 pm 3.05 ft 846 cfs
Fri01/18 04:15 pm 3.07 ft 856 cfs
Fri01/18 04:00 pm 3.1 ft 872 cfs
Fri01/18 03:45 pm 3.07 ft 856 cfs
Fri01/18 03:30 pm 3.08 ft 862 cfs
Fri01/18 03:15 pm 3.1 ft 872 cfs
Fri01/18 03:00 pm 3.13 ft 889 cfs
Fri01/18 02:45 pm 3.1 ft 872 cfs
Fri01/18 02:30 pm 3.12 ft 883 cfs
Fri01/18 02:15 pm 3.14 ft 894 cfs
Fri01/18 02:00 pm 3.13 ft 889 cfs
Fri01/18 01:45 pm 3.11 ft 878 cfs
Fri01/18 01:30 pm 3.16 ft 905 cfs
Fri01/18 01:15 pm 3.13 ft 889 cfs
Fri01/18 01:00 pm 3.18 ft 916 cfs
Fri01/18 12:45 pm 3.16 ft 905 cfs
Fri01/18 12:30 pm 3.15 ft 900 cfs
Fri01/18 12:15 pm 3.19 ft 922 cfs
Fri01/18 12:00 pm 3.17 ft 911 cfs
Fri01/18 11:45 am 3.19 ft 922 cfs
Fri01/18 11:30 am 3.19 ft 922 cfs
Fri01/18 11:15 am 3.2 ft 927 cfs
Fri01/18 11:00 am 3.19 ft 922 cfs
Fri01/18 10:45 am 3.19 ft 922 cfs
Fri01/18 10:30 am 3.2 ft 927 cfs
Fri01/18 10:15 am 3.2 ft 927 cfs
Fri01/18 10:00 am 3.2 ft 927 cfs
Fri01/18 09:45 am 3.22 ft 939 cfs
Fri01/18 09:30 am 3.21 ft 933 cfs
Fri01/18 09:15 am 3.18 ft 916 cfs
Fri01/18 09:00 am 3.16 ft 905 cfs
Fri01/18 08:45 am 3.18 ft 916 cfs
Fri01/18 08:30 am 3.15 ft 900 cfs
Fri01/18 08:15 am 3.18 ft 916 cfs
Fri01/18 08:00 am 3.13 ft 889 cfs
Fri01/18 07:45 am 3.15 ft 900 cfs
Fri01/18 07:30 am 3.1 ft 872 cfs
Fri01/18 07:15 am 3.12 ft 883 cfs
Fri01/18 07:00 am 3.1 ft 872 cfs
Fri01/18 06:45 am 3.09 ft 867 cfs
Fri01/18 06:30 am 3.07 ft 856 cfs
Fri01/18 06:15 am 3.06 ft 851 cfs
Fri01/18 06:00 am 3.07 ft 856 cfs
Fri01/18 05:45 am 3.04 ft 841 cfs
Fri01/18 05:30 am 3.0 ft 820 cfs
Fri01/18 05:15 am 3.02 ft 830 cfs
Fri01/18 05:00 am 2.98 ft 810 cfs
Fri01/18 04:45 am 2.97 ft 804 cfs
Fri01/18 04:30 am 2.95 ft 794 cfs

Latest Forecasts

Currently Forecasted Readings:
Fri01/18 10:00 pm 3.09 ft 866 cfs
Sat01/19 04:00 am 3.92 ft 1390 cfs
Sat01/19 10:00 am 4.17 ft 1584 cfs
Sat01/19 04:00 pm 4.25 ft 1653 cfs
Sat01/19 10:00 pm 4.14 ft 1563 cfs
Sun01/20 04:00 am 3.87 ft 1353 cfs
Sun01/20 10:00 am 3.6 ft 1174 cfs
Sun01/20 04:00 pm 3.43 ft 1060 cfs
Sun01/20 10:00 pm 3.26 ft 964 cfs
Mon01/21 04:00 am 3.0 ft 821 cfs
Mon01/21 10:00 am 2.78 ft 712 cfs
Mon01/21 04:00 pm 2.63 ft 641 cfs
Mon01/21 10:00 pm 2.51 ft 593 cfs
Tue01/22 04:00 am 2.39 ft 543 cfs
Tue01/22 10:00 am 2.41 ft 551 cfs
Tue01/22 04:00 pm 3.95 ft 1418 cfs
Tue01/22 10:00 pm 5.02 ft 2367 cfs
Wed01/23 04:00 am 5.53 ft 2933 cfs
Wed01/23 10:00 am 5.69 ft 3127 cfs
Wed01/23 04:00 pm 5.47 ft 2858 cfs
Wed01/23 10:00 pm 5.03 ft 2376 cfs
Thu01/24 04:00 am 4.55 ft 1907 cfs
Thu01/24 10:00 am 4.12 ft 1542 cfs
Thu01/24 04:00 pm 3.72 ft 1249 cfs
Thu01/24 10:00 pm 3.41 ft 1050 cfs
Fri01/25 04:00 am 3.18 ft 918 cfs
Fri01/25 10:00 am 3.0 ft 818 cfs
Fri01/25 04:00 pm 2.83 ft 736 cfs
Fri01/25 10:00 pm 2.69 ft 671 cfs
Sat01/26 04:00 am 2.58 ft 620 cfs
Sat01/26 10:00 am 2.48 ft 579 cfs
Sat01/26 04:00 pm 2.38 ft 539 cfs
Sat01/26 10:00 pm 2.29 ft 506 cfs
Sun01/27 04:00 am 2.23 ft 483 cfs
Sun01/27 10:00 am 2.17 ft 462 cfs
Sun01/27 04:00 pm 2.11 ft 439 cfs
Sun01/27 10:00 pm 2.05 ft 418 cfs
Mon01/28 04:00 am 2.09 ft 432 cfs

Snoqualmie River flood gauge data supplied by the
National Weather Service Northwest River Forecast Center.

Sign up for Floodzilla alerts.